Time;durP1;ratioP1;P1;durP2;ratioP2;P2;SDS_P1;SDS_P2;PMS_P1;PMS_P2;Temp;Humidity;BMP_temperature;BMP_pressure;BME280_temperature;BME280_humidity;BME280_pressure;Samples;Min_cycle;Max_cycle;Signal;HPM_P1;HPM_P2
2022/05/03 00:00:36;;;;;;;0.20;0.20;;;;;;;;;;4943000;29;20074;-86
2022/05/03 00:03:02;;;;;;;0.65;0.50;;;;;;;;;;4943119;28;20055;-84
2022/05/03 00:05:37;;;;;;;0.10;0.10;;;;;;;;;;4942792;28;20038;-83
2022/05/03 00:08:15;;;;;;;0.22;0.22;;;;;;;;;;4943031;28;20090;-82
2022/05/03 00:10:50;;;;;;;0.20;0.20;;;;;;;;;;4938527;28;20063;-82
2022/05/03 00:13:19;;;;;;;0.30;0.30;;;;;;;;;;4943115;28;20661;-82
2022/05/03 00:15:45;;;;;;;0.20;0.20;;;;;;;;;;4942877;28;20037;-82
2022/05/03 00:18:12;;;;;;;1.15;0.75;;;;;;;;;;4942536;28;20035;-84
2022/05/03 00:20:39;;;;;;;0.40;0.30;;;;;;;;;;4942344;28;20027;-84
2022/05/03 00:23:05;;;;;;;0.63;0.63;;;;;;;;;;4942748;28;20050;-83
2022/05/03 00:25:31;;;;;;;1.98;0.95;;;;;;;;;;4943809;28;20506;-85
2022/05/03 00:27:57;;;;;;;0.20;0.20;;;;;;;;;;4947492;28;20194;-84
2022/05/03 00:30:23;;;;;;;0.50;0.50;;;;;;;;;;4943295;29;20306;-84
2022/05/03 00:32:49;;;;;;;1.17;1.07;;;;;;;;;;4942245;28;20426;-82
2022/05/03 00:35:21;;;;;;;0.10;0.10;;;;;;;;;;4943379;28;20295;-82
2022/05/03 00:37:47;;;;;;;0.25;0.25;;;;;;;;;;4937600;29;20027;-84
2022/05/03 00:40:15;;;;;;;0.43;0.37;;;;;;;;;;4941038;28;20042;-85
2022/05/03 00:42:47;;;;;;;3.83;0.65;;;;;;;;;;4940474;28;20038;-84
2022/05/03 00:45:25;;;;;;;0.40;0.40;;;;;;;;;;4937364;28;20059;-83
2022/05/03 00:47:54;;;;;;;0.40;0.40;;;;;;;;;;4942769;28;20080;-84
2022/05/03 00:50:29;;;;;;;0.20;0.20;;;;;;;;;;4940196;28;20590;-84
2022/05/03 00:53:22;;;;;;;0.40;0.40;;;;;;;;;;4940566;28;20542;-85
2022/05/03 00:56:00;;;;;;;0.30;0.30;;;;;;;;;;4879553;29;20790;-85
2022/05/03 00:58:46;;;;;;;0.47;0.47;;;;;;;;;;4882814;29;20112;-85
2022/05/03 01:01:17;;;;;;;0.45;0.40;;;;;;;;;;4879415;29;20057;-88
2022/05/03 01:03:46;;;;;;;6.50;0.90;;;;;;;;;;4872086;29;20838;-88
2022/05/03 01:06:22;;;;;;;1.13;1.02;;;;;;;;;;4884191;29;20040;-89
2022/05/03 01:09:00;;;;;;;0.80;0.43;;;;;;;;;;4878239;29;20127;-87
2022/05/03 01:12:01;;;;;;;0.35;0.35;;;;;;;;;;4878302;29;20033;-88
2022/05/03 01:14:46;;;;;;;0.10;0.10;;;;;;;;;;4792888;29;20042;-82
2022/05/03 01:17:17;;;;;;;0.40;0.40;;;;;;;;;;4807905;29;20106;-88
2022/05/03 01:19:49;;;;;;;0.45;0.45;;;;;;;;;;4815667;29;20281;-86
2022/05/03 01:22:21;;;;;;;2.92;1.13;;;;;;;;;;4809263;29;20486;-86
2022/05/03 01:24:49;;;;;;;26.42;1.13;;;;;;;;;;4808092;29;20065;-86
2022/05/03 01:27:15;;;;;;;0.05;0.05;;;;;;;;;;4810542;29;20047;-86
2022/05/03 01:29:45;;;;;;;0.20;0.20;;;;;;;;;;4809880;29;20050;-83
2022/05/03 01:32:12;;;;;;;0.30;0.30;;;;;;;;;;4831925;29;20071;-87
2022/05/03 01:34:41;;;;;;;0.20;0.20;;;;;;;;;;4884543;29;20033;-85
2022/05/03 01:37:18;;;;;;;0.25;0.25;;;;;;;;;;4880426;29;20041;-85
2022/05/03 01:39:44;;;;;;;0.28;0.28;;;;;;;;;;4882578;29;20046;-84
2022/05/03 01:42:25;;;;;;;4.30;0.57;;;;;;;;;;4882853;29;20128;-83
2022/05/03 01:44:51;;;;;;;0.10;0.10;;;;;;;;;;4883654;29;20124;-82
2022/05/03 01:47:23;;;;;;;1.37;0.97;;;;;;;;;;4883439;29;21922;-85
2022/05/03 01:50:20;;;;;;;0.28;0.28;;;;;;;;;;4941518;29;20075;-82
2022/05/03 01:52:52;;;;;;;0.40;0.30;;;;;;;;;;4943228;28;20491;-83
2022/05/03 01:55:41;;;;;;;7.53;1.75;;;;;;;;;;4943848;28;20031;-83
2022/05/03 01:58:27;;;;;;;0.70;0.70;;;;;;;;;;4944664;28;20903;-82
2022/05/03 02:01:04;;;;;;;0.20;0.20;;;;;;;;;;4882298;29;20043;-82
2022/05/03 02:03:33;;;;;;;0.40;0.40;;;;;;;;;;4885106;29;20052;-83
2022/05/03 02:06:08;;;;;;;0.85;0.85;;;;;;;;;;4881402;29;20056;-82
2022/05/03 02:08:47;;;;;;;0.30;0.30;;;;;;;;;;4884335;29;20198;-82
2022/05/03 02:11:15;;;;;;;0.10;0.10;;;;;;;;;;4881923;29;20171;-83
2022/05/03 02:16:30;;;;;;;0.47;0.47;;;;;;;;;;4884269;29;20543;-83
2022/05/03 02:19:13;;;;;;;0.17;0.17;;;;;;;;;;4881463;29;20045;-83
2022/05/03 02:21:49;;;;;;;0.13;0.13;;;;;;;;;;4883490;29;20032;-82
2022/05/03 02:24:26;;;;;;;0.73;0.28;;;;;;;;;;4889122;29;20052;-83
2022/05/03 02:26:55;;;;;;;0.10;0.10;;;;;;;;;;4883661;29;20041;-82
2022/05/03 02:29:28;;;;;;;0.32;0.32;;;;;;;;;;4883296;29;20127;-81
2022/05/03 02:32:02;;;;;;;0.35;0.35;;;;;;;;;;4878547;29;20049;-82
2022/05/03 02:34:46;;;;;;;0.22;0.22;;;;;;;;;;4878558;29;20057;-82
2022/05/03 02:37:22;;;;;;;0.15;0.15;;;;;;;;;;4887638;28;20046;-82
2022/05/03 02:39:57;;;;;;;0.20;0.20;;;;;;;;;;4939228;28;20082;-83
2022/05/03 02:42:23;;;;;;;0.43;0.32;;;;;;;;;;4942095;28;20706;-83
2022/05/03 02:44:50;;;;;;;0.17;0.17;;;;;;;;;;4942066;28;20090;-86
2022/05/03 02:47:24;;;;;;;1.02;0.60;;;;;;;;;;4939461;28;20130;-87
2022/05/03 02:49:49;;;;;;;0.22;0.22;;;;;;;;;;4941583;28;20071;-86
2022/05/03 02:52:25;;;;;;;0.82;0.55;;;;;;;;;;4940750;28;20186;-87
2022/05/03 02:54:57;;;;;;;0.30;0.30;;;;;;;;;;4941640;28;21043;-86
2022/05/03 02:57:26;;;;;;;2.83;0.90;;;;;;;;;;4937701;28;20036;-87
2022/05/03 03:02:41;;;;;;;0.20;0.20;;;;;;;;;;4940405;28;20045;-82
2022/05/03 03:05:08;;;;;;;0.10;0.10;;;;;;;;;;4941059;28;20031;-83
2022/05/03 03:07:55;;;;;;;0.95;0.43;;;;;;;;;;4941091;28;20027;-85
2022/05/03 03:10:22;;;;;;;0.90;0.55;;;;;;;;;;4940750;28;20407;-83
2022/05/03 03:12:48;;;;;;;0.20;0.20;;;;;;;;;;4944924;28;20483;-82
2022/05/03 03:15:15;;;;;;;0.20;0.20;;;;;;;;;;4939503;28;20031;-82
2022/05/03 03:17:43;;;;;;;0.10;0.10;;;;;;;;;;4941698;28;20601;-82
2022/05/03 03:20:11;;;;;;;0.15;0.15;;;;;;;;;;4943372;28;20039;-83
2022/05/03 03:22:37;;;;;;;0.05;0.05;;;;;;;;;;4942675;28;20093;-83
2022/05/03 03:25:04;;;;;;;0.03;0.03;;;;;;;;;;4942130;28;20038;-83
2022/05/03 03:27:33;;;;;;;0.10;0.10;;;;;;;;;;4942797;28;20109;-81
2022/05/03 03:30:01;;;;;;;0.20;0.20;;;;;;;;;;4941715;28;20047;-82
2022/05/03 03:32:27;;;;;;;0.10;0.10;;;;;;;;;;4938388;28;20479;-86
2022/05/03 03:34:57;;;;;;;0.10;0.10;;;;;;;;;;4938249;28;20043;-85
2022/05/03 03:37:25;;;;;;;0.55;0.55;;;;;;;;;;4937256;28;20098;-85
2022/05/03 03:39:51;;;;;;;0.10;0.10;;;;;;;;;;4940225;28;20415;-85
2022/05/03 03:42:17;;;;;;;0.65;0.40;;;;;;;;;;4943209;28;20030;-85
2022/05/03 03:44:43;;;;;;;0.10;0.10;;;;;;;;;;4942468;28;20122;-86
2022/05/03 03:47:10;;;;;;;3.73;0.53;;;;;;;;;;4940420;28;20578;-85
2022/05/03 03:49:37;;;;;;;0.13;0.13;;;;;;;;;;4935633;29;20070;-84
2022/05/03 03:52:03;;;;;;;0.65;0.22;;;;;;;;;;4933670;28;20051;-81
2022/05/03 03:54:29;;;;;;;0.20;0.20;;;;;;;;;;4941216;28;20043;-83
2022/05/03 03:56:56;;;;;;;0.15;0.15;;;;;;;;;;4943431;28;20058;-83
2022/05/03 03:59:22;;;;;;;0.63;0.35;;;;;;;;;;4941796;28;20032;-83
2022/05/03 04:01:49;;;;;;;0.03;0.03;;;;;;;;;;4941352;28;20499;-82
2022/05/03 04:04:17;;;;;;;0.30;0.30;;;;;;;;;;4940111;28;20075;-82
2022/05/03 04:06:44;;;;;;;0.35;0.10;;;;;;;;;;4936703;28;20062;-82
2022/05/03 04:09:10;;;;;;;0.10;0.10;;;;;;;;;;4936388;28;20122;-81
2022/05/03 04:11:46;;;;;;;0.47;0.37;;;;;;;;;;4941998;28;20027;-81
2022/05/03 04:14:12;;;;;;;0.20;0.20;;;;;;;;;;4937722;28;20041;-81
2022/05/03 04:16:38;;;;;;;0.20;0.20;;;;;;;;;;4941821;28;20031;-81
2022/05/03 04:19:05;;;;;;;0.73;0.73;;;;;;;;;;4940211;28;20511;-81
2022/05/03 04:21:31;;;;;;;0.10;0.10;;;;;;;;;;4942215;28;20062;-81
2022/05/03 04:23:57;;;;;;;0.52;0.52;;;;;;;;;;4939879;28;20095;-81
2022/05/03 04:26:23;;;;;;;0.38;0.38;;;;;;;;;;4941517;28;20031;-81
2022/05/03 04:28:49;;;;;;;0.20;0.20;;;;;;;;;;4940968;28;20598;-79
2022/05/03 04:31:15;;;;;;;0.22;0.22;;;;;;;;;;4939838;28;20277;-79
2022/05/03 04:33:41;;;;;;;0.30;0.30;;;;;;;;;;4941834;28;20035;-81
2022/05/03 04:36:07;;;;;;;0.10;0.10;;;;;;;;;;4942635;28;20311;-81
2022/05/03 04:38:33;;;;;;;0.50;0.50;;;;;;;;;;4942438;28;20031;-81
2022/05/03 04:41:03;;;;;;;0.10;0.10;;;;;;;;;;4940325;28;20110;-83
2022/05/03 04:43:29;;;;;;;0.20;0.20;;;;;;;;;;4940247;28;20031;-83
2022/05/03 04:45:55;;;;;;;0.20;0.20;;;;;;;;;;4940461;28;21059;-84
2022/05/03 04:48:21;;;;;;;0.73;0.30;;;;;;;;;;4942595;28;20039;-85
2022/05/03 04:50:47;;;;;;;0.47;0.35;;;;;;;;;;4941537;29;20122;-84
2022/05/03 04:53:16;;;;;;;0.20;0.20;;;;;;;;;;4944665;28;20024;-83
2022/05/03 04:55:42;;;;;;;0.10;0.10;;;;;;;;;;4944969;28;20073;-85
2022/05/03 04:58:08;;;;;;;1.08;0.70;;;;;;;;;;4945832;28;20067;-84
2022/05/03 05:00:34;;;;;;;0.20;0.20;;;;;;;;;;4941619;28;20142;-87
2022/05/03 05:03:00;;;;;;;0.30;0.30;;;;;;;;;;4943080;28;20117;-84
2022/05/03 05:05:26;;;;;;;0.20;0.20;;;;;;;;;;4948167;28;20465;-85
2022/05/03 05:07:52;;;;;;;0.20;0.20;;;;;;;;;;4945574;28;20475;-79
2022/05/03 05:10:24;;;;;;;0.43;0.43;;;;;;;;;;4946807;28;20039;-80
2022/05/03 05:12:51;;;;;;;0.20;0.20;;;;;;;;;;4948285;28;20055;-81
2022/05/03 05:15:17;;;;;;;3.10;1.98;;;;;;;;;;4945435;28;20027;-88
2022/05/03 05:17:43;;;;;;;0.40;0.30;;;;;;;;;;4939999;28;20109;-89
2022/05/03 05:20:09;;;;;;;0.20;0.20;;;;;;;;;;4944226;28;20046;-88
2022/05/03 05:22:36;;;;;;;0.10;0.10;;;;;;;;;;4945109;28;20106;-87
2022/05/03 05:25:02;;;;;;;0.17;0.17;;;;;;;;;;4943516;29;20491;-90
2022/05/03 05:27:28;;;;;;;0.38;0.38;;;;;;;;;;4944665;28;20598;-89
2022/05/03 05:29:54;;;;;;;0.20;0.20;;;;;;;;;;4940975;28;20587;-83
2022/05/03 05:32:20;;;;;;;0.15;0.15;;;;;;;;;;4941410;28;20123;-87
2022/05/03 05:34:46;;;;;;;0.83;0.50;;;;;;;;;;4940191;28;20110;-82
2022/05/03 05:37:12;;;;;;;0.30;0.30;;;;;;;;;;4940961;28;20037;-83
2022/05/03 05:39:38;;;;;;;0.30;0.30;;;;;;;;;;4944468;29;20039;-81
2022/05/03 05:42:04;;;;;;;0.40;0.30;;;;;;;;;;4944385;28;20511;-81
2022/05/03 05:44:30;;;;;;;0.10;0.10;;;;;;;;;;4948896;28;20641;-80
2022/05/03 05:46:56;;;;;;;0.70;0.55;;;;;;;;;;4945507;28;20293;-81
2022/05/03 05:49:23;;;;;;;0.30;0.30;;;;;;;;;;4947271;28;20043;-82
2022/05/03 05:51:49;;;;;;;0.15;0.15;;;;;;;;;;4949208;28;20385;-80
2022/05/03 05:54:16;;;;;;;3.63;0.60;;;;;;;;;;4950760;28;20122;-84
2022/05/03 05:56:44;;;;;;;0.13;0.13;;;;;;;;;;4956613;28;20058;-84
2022/05/03 05:59:10;;;;;;;18.33;1.33;;;;;;;;;;4956126;28;20035;-84
2022/05/03 06:01:39;;;;;;;0.10;0.10;;;;;;;;;;4948216;28;20037;-84
2022/05/03 06:04:06;;;;;;;0.50;0.50;;;;;;;;;;4935204;29;20456;-83
2022/05/03 06:06:36;;;;;;;0.40;0.32;;;;;;;;;;4955894;28;20031;-82
2022/05/03 06:09:05;;;;;;;0.20;0.20;;;;;;;;;;4947613;28;20090;-83
2022/05/03 06:11:32;;;;;;;0.35;0.35;;;;;;;;;;4948471;28;20039;-82
2022/05/03 06:13:58;;;;;;;0.63;0.63;;;;;;;;;;4941128;28;20031;-82
2022/05/03 06:16:24;;;;;;;0.10;0.10;;;;;;;;;;4949433;28;20038;-82
2022/05/03 06:18:50;;;;;;;0.83;0.30;;;;;;;;;;4948707;28;20035;-81
2022/05/03 06:21:16;;;;;;;0.13;0.13;;;;;;;;;;4952218;28;20279;-82
2022/05/03 06:23:42;;;;;;;0.40;0.40;;;;;;;;;;4946607;28;20042;-81
2022/05/03 06:26:09;;;;;;;0.40;0.40;;;;;;;;;;4950679;28;20283;-83
2022/05/03 06:28:35;;;;;;;0.15;0.15;;;;;;;;;;4951319;28;20399;-81
2022/05/03 06:31:01;;;;;;;0.17;0.17;;;;;;;;;;4947109;28;20031;-81
2022/05/03 06:33:27;;;;;;;0.23;0.23;;;;;;;;;;4952557;28;20027;-81
2022/05/03 06:35:53;;;;;;;0.20;0.20;;;;;;;;;;4951743;28;20286;-81
2022/05/03 06:38:20;;;;;;;0.30;0.30;;;;;;;;;;4944415;28;20286;-85
2022/05/03 06:40:46;;;;;;;0.50;0.50;;;;;;;;;;4947576;28;20114;-85
2022/05/03 06:43:12;;;;;;;1.55;0.50;;;;;;;;;;4944945;28;20039;-85
2022/05/03 06:45:38;;;;;;;0.32;0.32;;;;;;;;;;4950990;28;20106;-86
2022/05/03 06:48:06;;;;;;;0.15;0.15;;;;;;;;;;4949122;28;20046;-86
2022/05/03 06:50:33;;;;;;;0.43;0.43;;;;;;;;;;4948576;28;20086;-86
2022/05/03 06:52:59;;;;;;;0.10;0.10;;;;;;;;;;4948996;28;20046;-86
2022/05/03 06:55:25;;;;;;;1.15;1.05;;;;;;;;;;4947666;28;20095;-86
2022/05/03 06:57:51;;;;;;;1.08;0.30;;;;;;;;;;4948235;28;20127;-86
2022/05/03 07:00:17;;;;;;;0.40;0.40;;;;;;;;;;4950532;28;20031;-87
2022/05/03 07:02:43;;;;;;;4.00;1.17;;;;;;;;;;4948446;28;20035;-86
2022/05/03 07:05:09;;;;;;;0.28;0.20;;;;;;;;;;4948239;28;20027;-86
2022/05/03 07:07:35;;;;;;;0.20;0.03;;;;;;;;;;4948191;28;20109;-87
2022/05/03 07:10:02;;;;;;;0.20;0.20;;;;;;;;;;4945491;28;20054;-87
2022/05/03 07:12:28;;;;;;;0.43;0.43;;;;;;;;;;4951715;28;20063;-85
2022/05/03 07:14:58;;;;;;;0.00;0.00;;;;;;;;;;4950755;28;20099;-87
2022/05/03 07:22:54;;;;;;;1.80;0.97;;;;;;;;;;4947509;28;20554;-88
2022/05/03 07:25:20;;;;;;;0.20;0.20;;;;;;;;;;4947395;28;20117;-88
2022/05/03 07:27:47;;;;;;;0.10;0.10;;;;;;;;;;4946974;28;20085;-87
2022/05/03 07:30:14;;;;;;;0.32;0.25;;;;;;;;;;4947551;28;20047;-88
2022/05/03 07:32:40;;;;;;;0.00;0.00;;;;;;;;;;4947305;28;20032;-85
2022/05/03 07:35:06;;;;;;;0.88;0.30;;;;;;;;;;4946561;28;20173;-84
2022/05/03 07:37:32;;;;;;;0.43;0.40;;;;;;;;;;4946912;29;20031;-85
2022/05/03 07:39:58;;;;;;;0.10;0.10;;;;;;;;;;4946452;28;20027;-85
2022/05/03 07:42:24;;;;;;;0.20;0.20;;;;;;;;;;4947205;29;20038;-85
2022/05/03 07:44:50;;;;;;;0.40;0.40;;;;;;;;;;4946743;28;20054;-85
2022/05/03 07:47:16;;;;;;;0.10;0.10;;;;;;;;;;4944756;29;20873;-85
2022/05/03 07:49:43;;;;;;;1.15;0.35;;;;;;;;;;4945882;28;20426;-84
2022/05/03 07:52:09;;;;;;;3.03;0.95;;;;;;;;;;4946306;28;20792;-85
2022/05/03 07:54:35;;;;;;;0.20;0.20;;;;;;;;;;4946565;28;20039;-85
2022/05/03 07:57:02;;;;;;;0.10;0.10;;;;;;;;;;4945872;29;20511;-85
2022/05/03 07:59:28;;;;;;;;;;;;;;;;;;4946283;28;20047;-85
2022/05/03 08:01:55;;;;;;;0.05;0.05;;;;;;;;;;4945945;28;19925;-85
2022/05/03 08:04:21;;;;;;;0.10;0.10;;;;;;;;;;4945705;29;20094;-85
2022/05/03 08:06:47;;;;;;;;;;;;;;;;;;4946587;28;20035;-86
2022/05/03 08:09:13;;;;;;;;;;;;;;;;;;4946513;28;19918;-84
2022/05/03 08:11:39;;;;;;;;;;;;;;;;;;4946079;28;19918;-84
2022/05/03 08:14:05;;;;;;;0.57;0.45;;;;;;;;;;4945610;28;19954;-84
2022/05/03 08:16:32;;;;;;;0.03;0.03;;;;;;;;;;4945641;29;20039;-84
2022/05/03 08:18:58;;;;;;;0.10;0.10;;;;;;;;;;4945729;28;20148;-84
2022/05/03 08:21:24;;;;;;;0.73;0.00;;;;;;;;;;4946431;28;20574;-84
2022/05/03 08:23:51;;;;;;;0.10;0.10;;;;;;;;;;4946467;28;20058;-85
2022/05/03 08:26:17;;;;;;;0.20;0.20;;;;;;;;;;4945476;29;20027;-85
2022/05/03 08:28:45;;;;;;;0.10;0.10;;;;;;;;;;4945871;28;20074;-85
2022/05/03 08:31:11;;;;;;;1.00;0.55;;;;;;;;;;4946053;29;20047;-85
2022/05/03 08:33:37;;;;;;;;;;;;;;;;;;4946726;28;20035;-84
2022/05/03 08:36:03;;;;;;;0.35;0.35;;;;;;;;;;4946213;28;19917;-84
2022/05/03 08:44:00;;;;;;;0.45;0.35;;;;;;;;;;4945114;29;20058;-84
2022/05/03 08:46:26;;;;;;;0.20;0.20;;;;;;;;;;4945508;28;20043;-84
2022/05/03 08:49:03;;;;;;;0.20;0.20;;;;;;;;;;4945397;28;20043;-84
2022/05/03 08:51:31;;;;;;;0.55;0.20;;;;;;;;;;4946520;28;20620;-84
2022/05/03 08:53:58;;;;;;;0.20;0.20;;;;;;;;;;4945263;28;20114;-84
2022/05/03 08:56:24;;;;;;;0.20;0.20;;;;;;;;;;4945881;28;20126;-84
2022/05/03 08:58:51;;;;;;;1.48;0.63;;;;;;;;;;4945677;29;20046;-84
2022/05/03 09:01:18;;;;;;;0.43;0.43;;;;;;;;;;4945720;29;20043;-84
2022/05/03 09:03:44;;;;;;;0.10;0.10;;;;;;;;;;4946343;28;20511;-84
2022/05/03 09:06:11;;;;;;;3.25;1.05;;;;;;;;;;4946175;28;20031;-84
2022/05/03 09:08:39;;;;;;;0.77;0.43;;;;;;;;;;4945301;29;20039;-84
2022/05/03 09:11:17;;;;;;;0.25;0.25;;;;;;;;;;4945366;28;20051;-84
2022/05/03 09:13:44;;;;;;;0.05;0.05;;;;;;;;;;4945539;28;20031;-84
2022/05/03 09:16:17;;;;;;;0.28;0.17;;;;;;;;;;4945423;28;20059;-84
2022/05/03 09:18:44;;;;;;;0.22;0.13;;;;;;;;;;4945442;28;20031;-84
2022/05/03 09:24:05;;;;;;;0.30;0.30;;;;;;;;;;4946590;28;20156;-84
2022/05/03 09:26:33;;;;;;;0.88;0.35;;;;;;;;;;4945458;28;20082;-84
2022/05/03 09:28:59;;;;;;;0.38;0.30;;;;;;;;;;4943170;29;20050;-84
2022/05/03 09:31:48;;;;;;;0.55;0.55;;;;;;;;;;4945656;29;20719;-88
2022/05/03 09:34:22;;;;;;;0.75;0.38;;;;;;;;;;4931313;29;20813;-89
2022/05/03 09:36:56;;;;;;;0.08;0.08;;;;;;;;;;4945327;28;20063;-87
2022/05/03 09:39:22;;;;;;;0.00;0.00;;;;;;;;;;4944322;29;20380;-87
2022/05/03 09:42:04;;;;;;;0.22;0.22;;;;;;;;;;4943351;29;20199;-87
2022/05/03 09:44:36;;;;;;;0.03;0.03;;;;;;;;;;4944736;28;20095;-88
2022/05/03 09:47:06;;;;;;;0.05;0.05;;;;;;;;;;4945564;29;20035;-88
2022/05/03 09:49:39;;;;;;;0.45;0.45;;;;;;;;;;4946321;28;20842;-88
2022/05/03 09:52:06;;;;;;;0.00;0.00;;;;;;;;;;4933041;29;20051;-88
2022/05/03 09:54:48;;;;;;;0.17;0.17;;;;;;;;;;4949525;28;20704;-88
2022/05/03 09:57:24;;;;;;;0.20;0.20;;;;;;;;;;4948696;29;20095;-87
2022/05/03 09:59:52;;;;;;;0.35;0.35;;;;;;;;;;4948614;28;20031;-87
2022/05/03 10:02:19;;;;;;;0.20;0.20;;;;;;;;;;4948447;29;20133;-88
2022/05/03 10:04:49;;;;;;;0.25;0.20;;;;;;;;;;4949070;29;20035;-88
2022/05/03 10:07:15;;;;;;;4.57;0.57;;;;;;;;;;4948481;28;20611;-90
2022/05/03 10:09:41;;;;;;;;;;;;;;;;;;4949056;28;20035;-88
2022/05/03 10:12:08;;;;;;;;;;;;;;;;;;4949878;28;20061;-88
2022/05/03 10:14:34;;;;;;;0.00;0.00;;;;;;;;;;4948446;28;19993;-87
2022/05/03 10:22:37;;;;;;;0.22;0.22;;;;;;;;;;4900831;29;20072;-90
2022/05/03 10:25:05;;;;;;;0.30;0.30;;;;;;;;;;4903772;29;20072;-87
2022/05/03 10:27:34;;;;;;;0.10;0.10;;;;;;;;;;4908838;29;20052;-87
2022/05/03 10:30:20;;;;;;;0.20;0.20;;;;;;;;;;4909479;29;20095;-87
2022/05/03 10:33:00;;;;;;;0.52;0.43;;;;;;;;;;4898221;29;20278;-81
2022/05/03 10:35:34;;;;;;;0.32;0.10;;;;;;;;;;4899322;29;20120;-81
2022/05/03 10:38:00;;;;;;;0.30;0.30;;;;;;;;;;4903437;29;20100;-81
2022/05/03 10:40:38;;;;;;;0.47;0.47;;;;;;;;;;4895438;29;20131;-80
2022/05/03 10:43:09;;;;;;;0.30;0.30;;;;;;;;;;4893015;29;20831;-81
2022/05/03 10:45:48;;;;;;;0.35;0.35;;;;;;;;;;4903742;29;20046;-81
2022/05/03 10:48:26;;;;;;;0.30;0.30;;;;;;;;;;4904608;29;20071;-81
2022/05/03 10:50:53;;;;;;;0.20;0.13;;;;;;;;;;4898057;29;20065;-81
2022/05/03 10:53:20;;;;;;;0.40;0.40;;;;;;;;;;4902949;29;20208;-81
2022/05/03 10:56:04;;;;;;;0.38;0.38;;;;;;;;;;4905045;29;20044;-81
2022/05/03 10:58:31;;;;;;;0.15;0.15;;;;;;;;;;4904959;29;20412;-81
2022/05/03 11:01:03;;;;;;;0.47;0.47;;;;;;;;;;4944549;28;20046;-80
2022/05/03 11:03:30;;;;;;;1.50;0.82;;;;;;;;;;4948049;28;20167;-80
2022/05/03 11:06:14;;;;;;;0.40;0.40;;;;;;;;;;4946645;28;20113;-81
2022/05/03 11:11:44;;;;;;;0.80;0.40;;;;;;;;;;4946660;28;20126;-81
2022/05/03 11:14:13;;;;;;;0.10;0.10;;;;;;;;;;4942015;29;20039;-81
2022/05/03 11:16:39;;;;;;;0.15;0.15;;;;;;;;;;4946726;29;20118;-81
2022/05/03 11:19:15;;;;;;;0.30;0.30;;;;;;;;;;4949701;28;20581;-81
2022/05/03 11:21:42;;;;;;;0.60;0.60;;;;;;;;;;4943458;29;20083;-80
2022/05/03 11:24:18;;;;;;;0.28;0.20;;;;;;;;;;4946759;28;20687;-81
2022/05/03 11:26:45;;;;;;;0.35;0.22;;;;;;;;;;4946238;28;20932;-81
2022/05/03 11:29:10;;;;;;;;;;;;;;;;;;4946511;28;20043;-81
2022/05/03 11:31:36;;;;;;;0.25;0.25;;;;;;;;;;4945980;28;19914;-88
2022/05/03 11:34:06;;;;;;;0.52;0.35;;;;;;;;;;4946167;28;20503;-87
2022/05/03 11:36:33;;;;;;;0.38;0.38;;;;;;;;;;4946903;28;20406;-87
2022/05/03 11:39:02;;;;;;;0.40;0.35;;;;;;;;;;4946266;28;20042;-86
2022/05/03 11:41:29;;;;;;;0.40;0.40;;;;;;;;;;4943444;29;20652;-86
2022/05/03 11:43:55;;;;;;;0.55;0.55;;;;;;;;;;4945696;28;20491;-87
2022/05/03 11:46:22;;;;;;;0.40;0.40;;;;;;;;;;4944984;29;20035;-86
2022/05/03 11:48:53;;;;;;;0.38;0.38;;;;;;;;;;4945880;28;20523;-87
2022/05/03 11:57:04;;;;;;;0.20;0.20;;;;;;;;;;4946627;29;20125;-87
2022/05/03 11:59:30;;;;;;;0.60;0.60;;;;;;;;;;4946427;28;20041;-87
2022/05/03 12:02:13;;;;;;;0.20;0.20;;;;;;;;;;4946039;28;20062;-88
2022/05/03 12:04:39;;;;;;;0.47;0.47;;;;;;;;;;4946101;28;20035;-87
2022/05/03 12:07:05;;;;;;;0.25;0.25;;;;;;;;;;4930304;29;20027;-88
2022/05/03 12:09:35;;;;;;;0.25;0.25;;;;;;;;;;4946683;28;20035;-88
2022/05/03 12:14:46;;;;;;;2.33;0.40;;;;;;;;;;4945903;29;20824;-87
2022/05/03 12:17:12;;;;;;;0.32;0.32;;;;;;;;;;4946043;28;20549;-87
2022/05/03 12:19:39;;;;;;;0.70;0.63;;;;;;;;;;4945881;29;20039;-89
2022/05/03 12:22:09;;;;;;;0.25;0.25;;;;;;;;;;4946304;28;20035;-88
2022/05/03 12:24:35;;;;;;;0.43;0.35;;;;;;;;;;4943206;29;20039;-90
2022/05/03 12:27:14;;;;;;;0.65;0.65;;;;;;;;;;4946382;28;20042;-89
2022/05/03 12:29:44;;;;;;;1.13;0.55;;;;;;;;;;4945889;29;20042;-90
2022/05/03 12:32:17;;;;;;;0.93;0.65;;;;;;;;;;4946049;28;20061;-80
2022/05/03 12:35:01;;;;;;;0.98;0.52;;;;;;;;;;4945473;28;20065;-79
2022/05/03 12:37:27;;;;;;;0.20;0.20;;;;;;;;;;4945283;28;20053;-80
2022/05/03 12:39:59;;;;;;;0.47;0.40;;;;;;;;;;4945258;28;20031;-80
2022/05/03 12:42:25;;;;;;;0.68;0.40;;;;;;;;;;4946233;28;20039;-81
2022/05/03 12:44:52;;;;;;;0.65;0.63;;;;;;;;;;4945487;28;20046;-80
2022/05/03 12:47:18;;;;;;;0.93;0.50;;;;;;;;;;4945243;29;20047;-81
2022/05/03 12:49:44;;;;;;;1.13;0.25;;;;;;;;;;4945163;29;20042;-80
2022/05/03 12:52:11;;;;;;;0.03;0.03;;;;;;;;;;4944878;28;20080;-81
2022/05/03 12:54:41;;;;;;;0.43;0.43;;;;;;;;;;4945990;29;20035;-80
2022/05/03 12:59:53;;;;;;;0.30;0.30;;;;;;;;;;4945125;29;20061;-80
2022/05/03 13:02:18;;;;;;;;;;;;;;;;;;4945215;28;20031;-80
2022/05/03 13:04:45;;;;;;;0.25;0.20;;;;;;;;;;4944751;28;19941;-80
2022/05/03 13:07:11;;;;;;;1.00;0.75;;;;;;;;;;4944700;28;20051;-80
2022/05/03 13:09:37;;;;;;;0.57;0.57;;;;;;;;;;4945350;29;20039;-80
2022/05/03 13:12:03;;;;;;;0.30;0.30;;;;;;;;;;4945210;29;20085;-80
2022/05/03 13:14:31;;;;;;;0.35;0.35;;;;;;;;;;4945091;29;20059;-80
2022/05/03 13:16:58;;;;;;;0.25;0.22;;;;;;;;;;4944861;28;20696;-80
2022/05/03 13:19:25;;;;;;;0.20;0.20;;;;;;;;;;4944882;29;20089;-80
2022/05/03 13:21:53;;;;;;;0.30;0.20;;;;;;;;;;4944882;28;20063;-80
2022/05/03 13:24:20;;;;;;;0.22;0.22;;;;;;;;;;4945246;28;20144;-80
2022/05/03 13:26:46;;;;;;;0.20;0.20;;;;;;;;;;4948446;29;20058;-79
2022/05/03 13:29:13;;;;;;;2.13;1.20;;;;;;;;;;4947841;28;20027;-80
2022/05/03 13:31:40;;;;;;;0.20;0.20;;;;;;;;;;4948672;28;20504;-80
2022/05/03 13:34:06;;;;;;;;;;;;;;;;;;4933344;29;20103;-80
2022/05/03 13:42:01;;;;;;;0.30;0.20;;;;;;;;;;4948071;29;20163;-80
2022/05/03 13:44:27;;;;;;;0.32;0.32;;;;;;;;;;4948253;29;20065;-80
2022/05/03 13:46:54;;;;;;;3.28;0.57;;;;;;;;;;4948443;28;20042;-80
2022/05/03 13:49:19;;;;;;;;;;;;;;;;;;4948265;28;20039;-80
2022/05/03 13:51:46;;;;;;;0.90;0.63;;;;;;;;;;4947900;28;19926;-80
2022/05/03 13:54:12;;;;;;;0.20;0.20;;;;;;;;;;4949072;29;20507;-80
2022/05/03 13:56:38;;;;;;;0.32;0.28;;;;;;;;;;4948201;28;20030;-80
2022/05/03 13:59:05;;;;;;;0.10;0.10;;;;;;;;;;4947665;29;20550;-80
2022/05/03 14:01:33;;;;;;;0.05;0.05;;;;;;;;;;4948021;28;20023;-80
2022/05/03 14:03:59;;;;;;;0.35;0.35;;;;;;;;;;4947868;28;20114;-80
2022/05/03 14:06:26;;;;;;;0.10;0.10;;;;;;;;;;4948519;28;20034;-80
2022/05/03 14:08:52;;;;;;;0.30;0.30;;;;;;;;;;4947684;29;20038;-81
2022/05/03 14:11:18;;;;;;;0.10;0.10;;;;;;;;;;4947436;28;20042;-80
2022/05/03 14:13:44;;;;;;;0.00;0.00;;;;;;;;;;4947937;29;20114;-80
2022/05/03 14:16:10;;;;;;;0.10;0.10;;;;;;;;;;4947504;29;20113;-80
2022/05/03 14:18:36;;;;;;;0.28;0.28;;;;;;;;;;4947909;28;20677;-80
2022/05/03 14:21:03;;;;;;;0.10;0.10;;;;;;;;;;4947914;29;20033;-80
2022/05/03 14:23:29;;;;;;;0.22;0.22;;;;;;;;;;4948001;28;20422;-80
2022/05/03 14:25:55;;;;;;;1.98;0.75;;;;;;;;;;4947754;28;20483;-80
2022/05/03 14:28:21;;;;;;;1.45;0.40;;;;;;;;;;4947652;29;20050;-80
2022/05/03 14:30:47;;;;;;;0.10;0.10;;;;;;;;;;4947829;28;20502;-80
2022/05/03 14:33:14;;;;;;;3.95;0.82;;;;;;;;;;4948110;29;20661;-80
2022/05/03 14:35:40;;;;;;;;;;;;;;;;;;4947282;28;20050;-80
2022/05/03 14:38:06;;;;;;;0.40;0.40;;;;;;;;;;4947469;28;19914;-80
2022/05/03 14:40:32;;;;;;;0.00;0.00;;;;;;;;;;4947258;29;20620;-80
2022/05/03 14:43:01;;;;;;;0.38;0.38;;;;;;;;;;4947217;28;20101;-80
2022/05/03 14:45:27;;;;;;;0.22;0.20;;;;;;;;;;4947927;29;20114;-80
2022/05/03 14:47:53;;;;;;;0.00;0.00;;;;;;;;;;4946811;28;20775;-80
2022/05/03 14:50:19;;;;;;;0.00;0.00;;;;;;;;;;4946793;29;20118;-80
2022/05/03 14:52:45;;;;;;;0.03;0.03;;;;;;;;;;4947131;29;20111;-80
2022/05/03 14:55:12;;;;;;;0.00;0.00;;;;;;;;;;4947447;28;20118;-80
2022/05/03 15:03:07;;;;;;;0.47;0.32;;;;;;;;;;4947476;29;20190;-81
2022/05/03 15:05:34;;;;;;;0.08;0.08;;;;;;;;;;4946984;28;20090;-80
2022/05/03 15:08:01;;;;;;;0.10;0.10;;;;;;;;;;4946887;28;20043;-81
2022/05/03 15:10:30;;;;;;;0.10;0.03;;;;;;;;;;4946601;29;20035;-80
2022/05/03 15:12:57;;;;;;;0.10;0.10;;;;;;;;;;4946862;28;20058;-81
2022/05/03 15:15:25;;;;;;;0.77;0.50;;;;;;;;;;4947365;29;20039;-81
2022/05/03 15:17:51;;;;;;;9.13;1.17;;;;;;;;;;4946823;28;20039;-81
2022/05/03 15:20:18;;;;;;;0.52;0.35;;;;;;;;;;4946580;28;20142;-81
2022/05/03 15:25:29;;;;;;;0.10;0.10;;;;;;;;;;4941105;28;20594;-82
2022/05/03 15:27:55;;;;;;;0.10;0.10;;;;;;;;;;4943242;29;20074;-84
2022/05/03 15:30:22;;;;;;;0.03;0.03;;;;;;;;;;4946768;28;20130;-84
2022/05/03 15:32:48;;;;;;;0.45;0.30;;;;;;;;;;4941195;28;20091;-84
2022/05/03 15:35:15;;;;;;;0.20;0.20;;;;;;;;;;4950429;28;20146;-84
2022/05/03 15:37:41;;;;;;;0.10;0.10;;;;;;;;;;4947192;28;20030;-85
2022/05/03 15:40:08;;;;;;;0.82;0.22;;;;;;;;;;4946413;28;20227;-87
2022/05/03 15:42:34;;;;;;;0.00;0.00;;;;;;;;;;4949053;28;20511;-89
2022/05/03 15:45:01;;;;;;;0.10;0.10;;;;;;;;;;4948529;28;20632;-89
2022/05/03 15:47:28;;;;;;;0.00;0.00;;;;;;;;;;4948760;28;20046;-88